Annette, Alaska
Current Conditions -  °F | °C
As of 6:53 AM on Friday 24 Oct 2014 (Local Time) from PANT Reporting Station
Broken Clouds Broken Clouds  
Wind Chill: 43°   Ceiling: 3000
Heat Index: 49°   Visibility: 10mi
Dew Point: 40°   Wind: 15mph
Humidity: 71%   Direction: 120°ESE
Pressure: 29.84"   Gusts: 21mph
Location:  55.05°N, 131.6°W
Report Text: PANT 241553Z 12013G18KT 10SM BKN030 BKN200 09/04 A2984 RMK AO2 RAE1454 SLP105 P0000 T00940044
Loading
Personal Weather Stations






























Interactive Weather Map
Tropical Storm Tracking
New forecast layout! Learn more

10-Day Weather Forecast

Advertisements
Track Severe Weather on mobile